Time;durP1;ratioP1;P1;durP2;ratioP2;P2;SDS_P1;SDS_P2;PMS_P1;PMS_P2;Temp;Humidity;BMP_temperature;BMP_pressure;BME280_temperature;BME280_humidity;BME280_pressure;Samples;Min_cycle;Max_cycle;Signal;HPM_P1;HPM_P2
2021/06/16 00:00:26;;;;;;;8.00;4.57;;;19.50;99.90;;;;;;5062020;28;20396;-51
2021/06/16 00:02:52;;;;;;;9.10;4.97;;;19.40;99.90;;;;;;5055107;28;20510;-54
2021/06/16 00:05:27;;;;;;;8.67;4.20;;;19.40;99.90;;;;;;5051761;28;20554;-51
2021/06/16 00:07:54;;;;;;;7.60;4.40;;;19.40;99.90;;;;;;5050543;28;20385;-51
2021/06/16 00:10:31;;;;;;;9.07;4.65;;;19.50;99.90;;;;;;5051270;28;20393;-51
2021/06/16 00:12:58;;;;;;;9.23;4.90;;;19.40;99.90;;;;;;5055620;28;20912;-51
2021/06/16 00:15:37;;;;;;;10.13;5.15;;;19.40;99.90;;;;;;5053880;28;20472;-50
2021/06/16 00:18:04;;;;;;;9.75;5.22;;;19.30;99.90;;;;;;5048675;28;20378;-50
2021/06/16 00:20:30;;;;;;;10.70;5.00;;;19.30;99.90;;;;;;5051145;28;20386;-51
2021/06/16 00:22:56;;;;;;;9.93;5.00;;;19.20;99.90;;;;;;5052837;28;20394;-51
2021/06/16 00:25:23;;;;;;;10.00;5.83;;;19.00;99.90;;;;;;5057508;28;20526;-51
2021/06/16 00:27:48;;;;;;;8.95;5.65;;;18.90;99.90;;;;;;5051329;28;20378;-51
2021/06/16 00:30:15;;;;;;;10.00;5.50;;;18.90;99.90;;;;;;5050319;28;20374;-51
2021/06/16 00:32:43;;;;;;;9.50;4.90;;;18.90;99.90;;;;;;5048204;28;20381;-50
2021/06/16 00:35:10;;;;;;;10.10;5.20;;;19.00;99.90;;;;;;5050219;28;20428;-52
2021/06/16 00:37:36;;;;;;;8.57;5.20;;;19.00;99.90;;;;;;5050388;28;20423;-53
2021/06/16 00:40:07;;;;;;;8.50;5.10;;;19.10;99.90;;;;;;5047809;28;20397;-51
2021/06/16 00:42:33;;;;;;;9.32;4.75;;;19.10;99.90;;;;;;5051107;28;20401;-51
2021/06/16 00:44:59;;;;;;;10.33;4.50;;;19.20;99.90;;;;;;5049197;28;20393;-51
2021/06/16 00:47:25;;;;;;;10.80;5.47;;;19.30;99.90;;;;;;5049908;28;20389;-51
2021/06/16 00:49:50;;;;;;;8.20;4.53;;;19.30;99.90;;;;;;5053993;28;20386;-54
2021/06/16 00:52:16;;;;;;;9.45;5.40;;;19.20;99.90;;;;;;5049585;28;20421;-50
2021/06/16 00:54:42;;;;;;;8.75;4.88;;;19.20;99.90;;;;;;5051976;28;20394;-51
2021/06/16 00:57:08;;;;;;;10.00;5.60;;;19.20;99.90;;;;;;5052847;28;20407;-51
2021/06/16 00:59:45;;;;;;;9.07;5.10;;;19.10;99.90;;;;;;5053260;28;20401;-51
2021/06/16 01:02:12;;;;;;;9.68;5.60;;;19.10;99.90;;;;;;5052060;28;21016;-51
2021/06/16 01:04:38;;;;;;;8.93;5.37;;;19.00;99.90;;;;;;5057899;28;20420;-51
2021/06/16 01:07:11;;;;;;;9.50;5.30;;;19.00;99.90;;;;;;5052638;28;20402;-50
2021/06/16 01:09:47;;;;;;;9.70;5.97;;;18.90;99.90;;;;;;5051939;28;20455;-51
2021/06/16 01:12:44;;;;;;;9.85;5.50;;;18.80;99.90;;;;;;5046106;28;20409;-51
2021/06/16 01:15:17;;;;;;;9.20;5.45;;;18.80;99.90;;;;;;5048016;28;20382;-51
2021/06/16 01:18:06;;;;;;;8.85;5.07;;;18.80;99.90;;;;;;5049436;28;20428;-50
2021/06/16 01:20:38;;;;;;;10.60;5.80;;;18.70;99.90;;;;;;5053511;28;20431;-51
2021/06/16 01:23:42;;;;;;;13.63;6.70;;;18.70;99.90;;;;;;5063956;28;20384;-51
2021/06/16 01:26:18;;;;;;;9.95;6.10;;;18.70;99.90;;;;;;5069638;28;20372;-51
2021/06/16 01:28:44;;;;;;;12.23;6.10;;;18.70;99.90;;;;;;5070477;28;20818;-50
2021/06/16 01:31:13;;;;;;;11.20;6.20;;;18.70;99.90;;;;;;5069362;28;20422;-51
2021/06/16 01:33:39;;;;;;;9.35;6.20;;;18.60;99.90;;;;;;5070507;28;20861;-51
2021/06/16 01:36:06;;;;;;;11.00;5.93;;;18.50;99.90;;;;;;5069892;28;20387;-51
2021/06/16 01:38:32;;;;;;;9.93;6.45;;;18.40;99.90;;;;;;5069368;28;20380;-51
2021/06/16 01:41:01;;;;;;;12.30;6.95;;;18.40;99.90;;;;;;5069225;28;20380;-51
2021/06/16 01:43:28;;;;;;;10.85;6.45;;;18.50;99.90;;;;;;5061011;28;20389;-51
2021/06/16 01:45:57;;;;;;;9.35;6.25;;;18.50;99.90;;;;;;5064260;28;20368;-54
2021/06/16 01:48:23;;;;;;;11.82;6.68;;;18.40;99.90;;;;;;5070164;28;20425;-51
2021/06/16 01:50:53;;;;;;;10.90;6.20;;;18.40;99.90;;;;;;5069854;28;20950;-51
2021/06/16 01:53:20;;;;;;;10.40;5.90;;;18.40;99.90;;;;;;5069561;28;20376;-51
2021/06/16 01:55:48;;;;;;;9.17;5.10;;;18.40;99.90;;;;;;5067983;28;20445;-51
2021/06/16 01:58:17;;;;;;;9.30;5.63;;;18.50;99.90;;;;;;5069199;28;20461;-51
2021/06/16 02:00:44;;;;;;;8.40;5.28;;;18.40;99.90;;;;;;5053594;28;20421;-51
2021/06/16 02:03:10;;;;;;;13.68;5.90;;;18.30;99.90;;;;;;5061026;28;20421;-51
2021/06/16 02:05:36;;;;;;;10.45;5.60;;;18.10;99.90;;;;;;5069755;28;20421;-52
2021/06/16 02:08:05;;;;;;;10.52;5.70;;;18.10;99.90;;;;;;5051552;28;20473;-51
2021/06/16 02:10:38;;;;;;;10.10;5.80;;;18.20;99.90;;;;;;5049859;28;20475;-51
2021/06/16 02:13:09;;;;;;;10.38;6.35;;;18.30;99.90;;;;;;5048827;28;20377;-51
2021/06/16 02:15:39;;;;;;;10.85;6.10;;;19.00;99.90;;;;;;5062088;28;20387;-51
2021/06/16 02:18:06;;;;;;;10.80;6.60;;;18.10;99.90;;;;;;5068884;28;20376;-51
2021/06/16 02:20:32;;;;;;;11.15;6.10;;;18.20;99.90;;;;;;5069333;28;20379;-51
2021/06/16 02:22:58;;;;;;;11.07;6.78;;;18.10;99.90;;;;;;5069052;28;20386;-51
2021/06/16 02:25:24;;;;;;;10.90;6.85;;;18.10;99.90;;;;;;5069474;28;20458;-51
2021/06/16 02:27:50;;;;;;;12.77;7.25;;;18.10;99.90;;;;;;5069662;28;20471;-51
2021/06/16 02:30:17;;;;;;;11.18;6.40;;;18.10;99.90;;;;;;5068798;28;20915;-51
2021/06/16 02:32:42;;;;;;;12.52;6.75;;;18.00;99.90;;;;;;5069295;28;20768;-51
2021/06/16 02:35:09;;;;;;;11.30;6.93;;;18.00;99.90;;;;;;5068812;28;20449;-51
2021/06/16 02:37:46;;;;;;;12.32;6.70;;;18.00;99.90;;;;;;5069317;28;20416;-51
2021/06/16 02:40:15;;;;;;;12.25;6.50;;;18.00;99.90;;;;;;5050070;28;20399;-51
2021/06/16 02:42:43;;;;;;;12.10;6.88;;;18.00;99.90;;;;;;5049700;28;20855;-51
2021/06/16 02:45:10;;;;;;;11.15;6.80;;;18.00;99.90;;;;;;5054992;28;20394;-51
2021/06/16 02:47:40;;;;;;;14.25;7.38;;;17.90;99.90;;;;;;5056233;28;20389;-52
2021/06/16 02:50:07;;;;;;;12.85;7.10;;;17.90;99.90;;;;;;5030535;28;20420;-51
2021/06/16 02:52:36;;;;;;;10.98;6.45;;;17.90;99.90;;;;;;5044979;28;20506;-51
2021/06/16 02:55:05;;;;;;;10.80;7.10;;;17.90;99.90;;;;;;5072495;28;20454;-51
2021/06/16 02:57:37;;;;;;;11.10;6.75;;;17.90;99.90;;;;;;5073212;28;20850;-52
2021/06/16 03:00:06;;;;;;;10.60;6.78;;;17.90;99.90;;;;;;5072385;28;20407;-51
2021/06/16 03:02:33;;;;;;;12.00;6.73;;;17.90;99.90;;;;;;5063325;28;20510;-51
2021/06/16 03:05:00;;;;;;;10.38;6.50;;;17.90;99.90;;;;;;5051968;28;20487;-52
2021/06/16 03:07:27;;;;;;;11.63;7.15;;;17.80;99.90;;;;;;5053369;28;20388;-51
2021/06/16 03:09:55;;;;;;;11.23;7.30;;;17.80;99.90;;;;;;5052878;28;20468;-54
2021/06/16 03:12:22;;;;;;;10.85;6.60;;;17.90;99.90;;;;;;5052630;28;20413;-51
2021/06/16 03:14:50;;;;;;;10.50;6.43;;;17.80;99.90;;;;;;5052958;28;20430;-51
2021/06/16 03:17:18;;;;;;;11.20;6.60;;;17.80;99.90;;;;;;5052175;28;20416;-51
2021/06/16 03:19:45;;;;;;;11.40;7.07;;;17.70;99.90;;;;;;5053736;28;20392;-51
2021/06/16 03:22:11;;;;;;;11.80;7.90;;;17.70;99.90;;;;;;5072043;28;20441;-52
2021/06/16 03:24:39;;;;;;;12.30;6.90;;;17.70;99.90;;;;;;5072954;28;20410;-51
2021/06/16 03:27:05;;;;;;;15.07;7.38;;;17.60;99.90;;;;;;5070811;28;20746;-51
2021/06/16 03:29:33;;;;;;;15.10;7.30;;;17.70;99.90;;;;;;5072647;28;20877;-51
2021/06/16 03:32:00;;;;;;;13.30;7.00;;;17.80;99.90;;;;;;5055195;28;20775;-52
2021/06/16 03:34:26;;;;;;;12.40;7.20;;;17.80;99.90;;;;;;5052697;28;20396;-51
2021/06/16 03:36:53;;;;;;;14.30;7.40;;;17.80;99.90;;;;;;5052519;28;20385;-51
2021/06/16 03:39:20;;;;;;;12.53;7.60;;;17.90;99.90;;;;;;5051311;28;20394;-51
2021/06/16 03:41:47;;;;;;;14.27;7.10;;;17.90;99.90;;;;;;5052054;28;20853;-51
2021/06/16 03:44:14;;;;;;;10.73;7.00;;;18.00;99.90;;;;;;5048500;28;20500;-51
2021/06/16 03:46:42;;;;;;;12.73;7.55;;;18.00;99.90;;;;;;5051871;28;20557;-51
2021/06/16 03:49:11;;;;;;;10.88;7.13;;;18.10;99.90;;;;;;5051024;28;20386;-51
2021/06/16 03:51:40;;;;;;;11.20;7.00;;;18.10;99.90;;;;;;5049476;28;20417;-51
2021/06/16 03:54:11;;;;;;;13.20;7.28;;;18.20;99.90;;;;;;5051619;28;20711;-51
2021/06/16 03:56:38;;;;;;;11.73;7.03;;;18.20;99.90;;;;;;5052101;28;20389;-51
2021/06/16 03:59:05;;;;;;;10.75;6.85;;;18.30;99.90;;;;;;5051226;28;20377;-51
2021/06/16 04:01:31;;;;;;;10.18;6.30;;;18.40;99.90;;;;;;5049597;28;20398;-52
2021/06/16 04:03:57;;;;;;;11.70;6.65;;;18.40;99.90;;;;;;5051050;28;20500;-55
2021/06/16 04:06:22;;;;;;;13.93;7.20;;;18.40;99.90;;;;;;5051487;28;20380;-52
2021/06/16 04:08:49;;;;;;;15.95;7.30;;;18.50;99.90;;;;;;5052175;28;20435;-51
2021/06/16 04:11:15;;;;;;;12.20;7.03;;;18.50;99.90;;;;;;5050964;28;20413;-52
2021/06/16 04:13:41;;;;;;;10.65;7.05;;;18.60;99.90;;;;;;5051857;28;20431;-51
2021/06/16 04:16:08;;;;;;;10.85;6.80;;;18.70;99.90;;;;;;5049993;28;20381;-53
2021/06/16 04:18:35;;;;;;;13.32;7.70;;;18.90;99.90;;;;;;5051652;28;20436;-51
2021/06/16 04:21:02;;;;;;;13.43;7.50;;;18.90;99.90;;;;;;5050782;28;20426;-51
2021/06/16 04:23:29;;;;;;;12.68;7.32;;;18.70;99.90;;;;;;5051667;28;20406;-52
2021/06/16 04:25:55;;;;;;;12.18;7.45;;;18.60;99.90;;;;;;5051153;28;20856;-55
2021/06/16 04:28:21;;;;;;;11.73;7.70;;;18.60;99.90;;;;;;5050896;28;20389;-51
2021/06/16 04:30:47;;;;;;;12.40;7.60;;;18.60;99.90;;;;;;5050968;28;20469;-51
2021/06/16 04:33:12;;;;;;;12.87;7.60;;;18.60;99.90;;;;;;5050671;28;20442;-52
2021/06/16 04:35:38;;;;;;;14.93;7.80;;;18.80;99.90;;;;;;5051119;28;20924;-51
2021/06/16 04:38:04;;;;;;;13.77;7.20;;;19.00;99.90;;;;;;5050635;28;20386;-53
2021/06/16 04:40:30;;;;;;;14.10;7.50;;;19.00;99.90;;;;;;5049910;28;20382;-51
2021/06/16 04:42:55;;;;;;;11.45;6.88;;;19.10;99.90;;;;;;5050969;28;20413;-54
2021/06/16 04:45:21;;;;;;;15.38;8.00;;;19.10;99.90;;;;;;5051872;28;20374;-50
2021/06/16 04:47:47;;;;;;;10.43;7.10;;;19.30;99.90;;;;;;5051452;28;20401;-51
2021/06/16 04:50:13;;;;;;;14.47;8.30;;;19.60;99.90;;;;;;5061340;28;20386;-51
2021/06/16 04:52:40;;;;;;;12.07;7.30;;;19.80;99.90;;;;;;5051456;28;21069;-51
2021/06/16 04:55:08;;;;;;;10.70;6.90;;;20.00;99.90;;;;;;5055266;28;20392;-51
2021/06/16 04:57:33;;;;;;;11.88;6.60;;;20.40;99.90;;;;;;5069590;28;20390;-50
2021/06/16 04:59:59;;;;;;;11.60;6.97;;;21.10;99.90;;;;;;5055522;28;20468;-52
2021/06/16 05:02:25;;;;;;;13.25;6.75;;;21.50;99.90;;;;;;5053271;28;20386;-50
2021/06/16 05:04:51;;;;;;;13.90;6.60;;;22.20;99.90;;;;;;5055356;28;20834;-50
2021/06/16 05:07:16;;;;;;;11.50;7.10;;;22.80;99.90;;;;;;5052624;28;20406;-50
2021/06/16 05:09:42;;;;;;;12.53;7.10;;;23.50;99.90;;;;;;5059446;28;20397;-51
2021/06/16 05:12:08;;;;;;;13.97;7.30;;;24.20;99.90;;;;;;5053940;28;20764;-50
2021/06/16 05:14:34;;;;;;;12.02;6.70;;;24.50;99.90;;;;;;5060589;28;21229;-51
2021/06/16 05:17:00;;;;;;;12.70;7.50;;;24.70;99.90;;;;;;5061939;28;20407;-54
2021/06/16 05:19:25;;;;;;;11.43;6.90;;;24.90;99.90;;;;;;5057419;28;20395;-52
2021/06/16 05:21:51;;;;;;;12.70;7.80;;;25.40;99.90;;;;;;5052617;28;20400;-51
2021/06/16 05:24:18;;;;;;;11.20;7.63;;;25.60;99.90;;;;;;5060401;28;20434;-48
2021/06/16 05:26:44;;;;;;;12.45;8.18;;;26.40;99.90;;;;;;5050195;28;20381;-48
2021/06/16 05:29:10;;;;;;;15.00;7.53;;;26.80;99.90;;;;;;5051868;28;20479;-50
2021/06/16 05:31:37;;;;;;;11.70;7.87;;;27.70;99.90;;;;;;5062777;28;21027;-49
2021/06/16 05:34:03;;;;;;;13.57;8.13;;;28.40;99.90;;;;;;5069373;28;20387;-51
2021/06/16 05:36:29;;;;;;;15.88;8.13;;;28.60;98.10;;;;;;5070254;28;20380;-49
2021/06/16 05:38:55;;;;;;;15.25;8.43;;;29.10;97.10;;;;;;5061554;28;21001;-50
2021/06/16 05:41:21;;;;;;;15.82;8.30;;;29.30;95.50;;;;;;5057903;28;20462;-51
2021/06/16 05:43:47;;;;;;;11.88;8.77;;;29.70;94.20;;;;;;5056152;28;20395;-50
2021/06/16 05:46:13;;;;;;;13.03;8.03;;;29.90;92.60;;;;;;5059229;28;20400;-50
2021/06/16 05:48:39;;;;;;;11.37;7.37;;;30.10;91.90;;;;;;5059174;28;20869;-50
2021/06/16 05:51:05;;;;;;;12.97;8.30;;;30.50;91.20;;;;;;5053950;28;20416;-55
2021/06/16 05:53:30;;;;;;;16.52;8.20;;;31.00;89.30;;;;;;5060464;28;20545;-51
2021/06/16 05:55:56;;;;;;;17.57;8.00;;;31.20;88.40;;;;;;5058703;28;20779;-49
2021/06/16 05:58:21;;;;;;;14.13;7.85;;;31.90;84.40;;;;;;5055732;28;20488;-50
2021/06/16 06:00:47;;;;;;;11.90;7.70;;;32.00;82.70;;;;;;5062410;28;20867;-49
2021/06/16 06:03:13;;;;;;;11.67;7.63;;;32.50;80.70;;;;;;5064076;28;20380;-50
2021/06/16 06:05:38;;;;;;;10.80;7.23;;;33.10;77.20;;;;;;5069060;28;20477;-51
2021/06/16 06:08:04;;;;;;;12.03;7.50;;;32.80;75.40;;;;;;5062205;28;20373;-51
2021/06/16 06:10:30;;;;;;;10.95;7.40;;;32.70;75.80;;;;;;5049444;28;20377;-50
2021/06/16 06:12:56;;;;;;;11.80;6.90;;;33.60;73.30;;;;;;5049417;28;20507;-50
2021/06/16 06:15:22;;;;;;;10.40;6.35;;;34.10;70.80;;;;;;5050712;28;20494;-51
2021/06/16 06:17:48;;;;;;;13.60;7.05;;;34.30;66.70;;;;;;5057430;28;20385;-50
2021/06/16 06:20:14;;;;;;;10.27;7.03;;;33.90;67.00;;;;;;5048497;28;20378;-50
2021/06/16 06:22:40;;;;;;;11.70;7.05;;;33.70;66.30;;;;;;5048210;28;20833;-50
2021/06/16 06:25:06;;;;;;;9.20;6.20;;;33.20;67.30;;;;;;5048037;28;20436;-51
2021/06/16 06:27:32;;;;;;;11.73;5.35;;;32.20;65.90;;;;;;5049138;28;20378;-50
2021/06/16 06:29:58;;;;;;;11.50;5.97;;;32.40;67.80;;;;;;5049862;28;20410;-50
2021/06/16 06:32:23;;;;;;;12.03;8.40;;;32.80;66.00;;;;;;5055768;28;20514;-51
2021/06/16 06:34:49;;;;;;;10.20;5.70;;;33.00;65.90;;;;;;5052372;28;20385;-50
2021/06/16 06:37:15;;;;;;;11.17;6.00;;;33.20;64.90;;;;;;5067050;28;20433;-50
2021/06/16 06:39:41;;;;;;;11.97;6.00;;;33.40;63.30;;;;;;5069066;28;20379;-53
2021/06/16 06:42:07;;;;;;;11.23;6.30;;;33.50;63.00;;;;;;5051032;28;20385;-51
2021/06/16 06:44:33;;;;;;;11.90;6.07;;;33.40;62.80;;;;;;5048351;28;20792;-51
2021/06/16 06:46:58;;;;;;;12.63;6.30;;;34.40;60.90;;;;;;5049521;28;20465;-51
2021/06/16 06:49:24;;;;;;;11.07;6.83;;;34.70;59.60;;;;;;5051017;28;20433;-52
2021/06/16 06:51:50;;;;;;;11.18;6.20;;;34.80;58.60;;;;;;5068828;28;20444;-52
2021/06/16 06:54:16;;;;;;;14.32;7.22;;;34.80;59.20;;;;;;5056930;28;20804;-51
2021/06/16 06:56:42;;;;;;;10.00;6.80;;;34.70;59.20;;;;;;5048878;28;20739;-51
2021/06/16 06:59:08;;;;;;;12.93;6.90;;;35.30;57.20;;;;;;5055704;28;20387;-51
2021/06/16 07:01:33;;;;;;;10.82;6.10;;;35.70;57.20;;;;;;5058736;28;20882;-51
2021/06/16 07:04:01;;;;;;;11.10;6.80;;;35.60;57.30;;;;;;5061621;28;20909;-50
2021/06/16 07:06:30;;;;;;;8.90;5.40;;;36.10;55.70;;;;;;5050708;28;20406;-52
2021/06/16 07:08:57;;;;;;;10.63;5.90;;;36.40;55.40;;;;;;5060179;28;20391;-52
2021/06/16 07:11:23;;;;;;;12.85;6.20;;;36.30;54.80;;;;;;5068226;28;20648;-51
2021/06/16 07:13:49;;;;;;;10.80;6.50;;;35.70;55.30;;;;;;5055377;28;20469;-51
2021/06/16 07:16:14;;;;;;;11.45;6.95;;;35.40;54.90;;;;;;5046937;28;20540;-52
2021/06/16 07:18:40;;;;;;;12.57;6.40;;;34.60;56.60;;;;;;5066321;28;20403;-52
2021/06/16 07:21:06;;;;;;;10.37;8.30;;;33.60;57.60;;;;;;5067462;28;20399;-54
2021/06/16 07:23:32;;;;;;;13.37;7.00;;;33.40;58.20;;;;;;5064472;28;20907;-51
2021/06/16 07:25:57;;;;;;;14.03;6.90;;;34.40;57.10;;;;;;5054268;28;20388;-51
2021/06/16 07:28:23;;;;;;;8.90;6.07;;;35.00;55.20;;;;;;5050971;28;20456;-52
2021/06/16 07:30:49;;;;;;;11.73;6.95;;;35.00;56.10;;;;;;5055658;28;20408;-51
2021/06/16 07:33:15;;;;;;;9.57;6.10;;;35.70;54.00;;;;;;5063432;28;20380;-50
2021/06/16 07:35:40;;;;;;;8.65;5.50;;;35.50;54.20;;;;;;5054024;28;20378;-51
2021/06/16 07:38:06;;;;;;;11.33;5.87;;;35.20;55.10;;;;;;5050999;28;20386;-54
2021/06/16 07:40:32;;;;;;;10.33;5.80;;;35.00;54.50;;;;;;5051955;28;20455;-51
2021/06/16 07:42:58;;;;;;;9.60;5.32;;;35.60;55.00;;;;;;5052034;28;20377;-52
2021/06/16 07:45:23;;;;;;;9.98;5.50;;;36.10;52.60;;;;;;5057363;28;20391;-52
2021/06/16 07:47:49;;;;;;;12.00;5.80;;;36.10;51.50;;;;;;5056548;28;20398;-51
2021/06/16 07:50:15;;;;;;;12.00;5.50;;;35.80;52.30;;;;;;5051290;28;20374;-52
2021/06/16 07:52:40;;;;;;;14.55;5.60;;;35.90;52.00;;;;;;5051579;28;20421;-52
2021/06/16 07:55:07;;;;;;;9.23;5.20;;;36.80;51.10;;;;;;5050982;28;20839;-52
2021/06/16 07:57:34;;;;;;;10.40;5.00;;;37.00;49.10;;;;;;5052364;28;20393;-53
2021/06/16 07:59:59;;;;;;;10.00;4.90;;;37.70;48.30;;;;;;5051585;28;20856;-50
2021/06/16 08:02:27;;;;;;;11.00;5.70;;;38.20;47.90;;;;;;5062037;28;20425;-51
2021/06/16 08:04:54;;;;;;;11.73;5.20;;;38.60;47.20;;;;;;5064352;28;20415;-51
2021/06/16 08:07:20;;;;;;;9.05;5.00;;;39.00;46.40;;;;;;5054942;28;20384;-51
2021/06/16 08:09:46;;;;;;;8.33;4.90;;;38.90;45.40;;;;;;5051555;28;20480;-50
2021/06/16 08:12:12;;;;;;;9.43;4.80;;;39.10;45.40;;;;;;5050782;28;20496;-51
2021/06/16 08:14:39;;;;;;;10.35;4.70;;;38.90;45.40;;;;;;5057385;28;20390;-49
2021/06/16 08:17:05;;;;;;;9.50;4.93;;;39.20;45.60;;;;;;5070581;28;20746;-54
2021/06/16 08:19:32;;;;;;;9.57;4.85;;;39.50;44.00;;;;;;5071502;28;20419;-51
2021/06/16 08:21:58;;;;;;;9.50;4.80;;;39.40;43.20;;;;;;5071448;28;20380;-50
2021/06/16 08:24:24;;;;;;;9.70;4.63;;;38.60;44.00;;;;;;5070088;28;20850;-50
2021/06/16 08:26:50;;;;;;;9.20;4.68;;;38.70;44.80;;;;;;5070008;28;20445;-51
2021/06/16 08:29:16;;;;;;;11.17;5.00;;;38.40;45.50;;;;;;5050493;28;20453;-51
2021/06/16 08:31:41;;;;;;;7.60;4.30;;;38.90;43.40;;;;;;5062210;28;20420;-53
2021/06/16 08:34:07;;;;;;;7.97;4.30;;;38.90;44.30;;;;;;5068834;28;20395;-54
2021/06/16 08:36:33;;;;;;;7.73;4.40;;;39.10;44.70;;;;;;5059768;28;20435;-50
2021/06/16 08:38:59;;;;;;;7.23;4.30;;;39.30;44.70;;;;;;5050819;28;20851;-50
2021/06/16 08:41:26;;;;;;;9.52;4.60;;;39.20;43.70;;;;;;5050113;28;20396;-50
2021/06/16 08:43:52;;;;;;;10.20;4.82;;;39.60;43.20;;;;;;5050677;28;20408;-51
2021/06/16 08:46:24;;;;;;;7.70;4.60;;;40.20;42.10;;;;;;5054903;28;20863;-50
2021/06/16 08:48:50;;;;;;;7.30;4.63;;;40.70;43.20;;;;;;5054350;28;20431;-51
2021/06/16 08:51:16;;;;;;;7.38;4.47;;;40.80;41.60;;;;;;5069705;28;20766;-51
2021/06/16 08:53:43;;;;;;;7.00;4.10;;;41.10;41.20;;;;;;5070444;28;20474;-52
2021/06/16 08:56:10;;;;;;;6.50;4.10;;;41.60;39.70;;;;;;5057496;28;20385;-52
2021/06/16 08:58:38;;;;;;;8.60;4.40;;;41.90;40.00;;;;;;5064343;28;20907;-52
2021/06/16 09:01:05;;;;;;;10.45;4.45;;;41.30;39.30;;;;;;5053477;28;20403;-55
2021/06/16 09:03:31;;;;;;;8.00;4.60;;;41.30;40.10;;;;;;5060641;28;20386;-52
2021/06/16 09:06:10;;;;;;;8.00;4.18;;;41.20;40.00;;;;;;5049504;28;20396;-53
2021/06/16 09:09:00;;;;;;;8.55;4.10;;;41.00;40.30;;;;;;5058778;28;20437;-52
2021/06/16 09:11:29;;;;;;;9.45;4.50;;;41.40;38.70;;;;;;5069174;28;20404;-52
2021/06/16 09:14:13;;;;;;;8.77;4.47;;;41.20;39.40;;;;;;5070407;28;20380;-52
2021/06/16 09:16:39;;;;;;;7.22;3.88;;;41.20;39.50;;;;;;5070219;28;20403;-51
2021/06/16 09:19:20;;;;;;;7.75;4.10;;;40.70;40.10;;;;;;5069910;28;20857;-53
2021/06/16 09:21:47;;;;;;;8.02;4.20;;;40.20;40.40;;;;;;5065681;28;20401;-51
2021/06/16 09:24:13;;;;;;;8.00;4.20;;;41.00;38.50;;;;;;5058263;28;20386;-51
2021/06/16 09:26:41;;;;;;;8.57;4.35;;;41.30;37.30;;;;;;5049776;28;20389;-51
2021/06/16 09:29:08;;;;;;;8.88;4.00;;;41.30;38.70;;;;;;5052323;28;20418;-54
2021/06/16 09:31:44;;;;;;;6.90;3.90;;;41.40;38.80;;;;;;5062553;28;20434;-52
2021/06/16 09:34:16;;;;;;;7.03;3.60;;;41.20;37.00;;;;;;5053735;28;20401;-51
2021/06/16 09:36:47;;;;;;;7.17;3.50;;;41.10;37.60;;;;;;5050647;28;20446;-51
2021/06/16 09:39:13;;;;;;;10.93;3.90;;;40.80;38.00;;;;;;5060173;28;20381;-50
2021/06/16 09:41:55;;;;;;;6.00;3.70;;;40.50;38.10;;;;;;5051801;28;20398;-51
2021/06/16 09:45:00;;;;;;;7.88;4.10;;;40.20;38.60;;;;;;5051823;28;20384;-51
2021/06/16 09:47:26;;;;;;;7.63;3.70;;;40.00;37.50;;;;;;5026151;28;20391;-53
2021/06/16 09:50:00;;;;;;;8.20;3.60;;;39.80;37.90;;;;;;5061835;28;20400;-51
2021/06/16 09:52:39;;;;;;;9.13;3.37;;;40.20;38.80;;;;;;5060355;28;20476;-51
2021/06/16 09:55:14;;;;;;;9.77;4.00;;;40.60;38.30;;;;;;5064042;28;20396;-53
2021/06/16 09:57:59;;;;;;;6.93;3.70;;;40.30;37.70;;;;;;5057866;28;20468;-51
2021/06/16 10:00:40;;;;;;;7.60;4.13;;;40.70;37.30;;;;;;5051342;28;20405;-51
2021/06/16 10:03:17;;;;;;;7.95;4.22;;;40.70;37.50;;;;;;5054948;28;20388;-54
2021/06/16 10:06:03;;;;;;;7.43;4.15;;;41.10;36.50;;;;;;5037981;28;20561;-51
2021/06/16 10:08:29;;;;;;;8.10;3.95;;;41.10;38.20;;;;;;5052125;28;20995;-52
2021/06/16 10:10:55;;;;;;;8.65;4.45;;;40.50;37.10;;;;;;5063051;28;20477;-52
2021/06/16 10:13:24;;;;;;;8.30;4.20;;;39.70;38.60;;;;;;5049243;28;20388;-51
2021/06/16 10:15:50;;;;;;;7.90;4.00;;;40.00;39.00;;;;;;5050050;28;20397;-51
2021/06/16 10:18:17;;;;;;;7.17;4.10;;;40.30;37.80;;;;;;5049748;28;21060;-51
2021/06/16 10:20:43;;;;;;;9.32;4.00;;;40.30;37.10;;;;;;5048203;28;20385;-51
2021/06/16 10:23:10;;;;;;;11.55;5.35;;;40.40;38.30;;;;;;5051784;28;20403;-54
2021/06/16 10:25:35;;;;;;;8.70;4.50;;;40.10;38.90;;;;;;5051019;28;20491;-52
2021/06/16 10:28:02;;;;;;;6.40;3.70;;;40.10;38.20;;;;;;5048210;28;20433;-51
2021/06/16 10:30:40;;;;;;;8.48;3.90;;;39.60;37.10;;;;;;5047643;28;20859;-51
2021/06/16 10:33:29;;;;;;;8.15;4.70;;;39.30;38.20;;;;;;5053127;28;20503;-54
2021/06/16 10:36:14;;;;;;;9.10;4.00;;;38.50;38.30;;;;;;5047084;28;20447;-51
2021/06/16 10:39:03;;;;;;;6.90;4.10;;;38.00;38.40;;;;;;5046330;28;20915;-52
2021/06/16 10:41:40;;;;;;;9.55;8.65;;;37.50;39.10;;;;;;5050663;28;20429;-51
2021/06/16 10:44:12;;;;;;;8.77;5.60;;;37.10;40.40;;;;;;5046016;28;20401;-55
2021/06/16 10:46:51;;;;;;;7.93;6.05;;;36.40;41.40;;;;;;5047661;28;20389;-52
2021/06/16 10:49:42;;;;;;;8.95;4.70;;;35.90;41.50;;;;;;5045867;28;20447;-51
2021/06/16 10:52:10;;;;;;;7.53;3.90;;;35.80;42.10;;;;;;5053962;28;20421;-54
2021/06/16 10:54:36;;;;;;;9.23;4.20;;;36.00;42.00;;;;;;5053846;28;20416;-51
2021/06/16 10:57:10;;;;;;;9.05;4.43;;;36.20;41.60;;;;;;5057037;28;20401;-52
2021/06/16 10:59:44;;;;;;;8.45;5.75;;;36.00;42.00;;;;;;5032488;28;20401;-52
2021/06/16 11:02:15;;;;;;;9.52;3.88;;;35.80;42.30;;;;;;5049667;28;20401;-53
2021/06/16 11:04:44;;;;;;;8.52;3.92;;;35.70;42.90;;;;;;5056456;28;20769;-51
2021/06/16 11:07:32;;;;;;;7.30;4.57;;;35.50;42.30;;;;;;5052951;28;20404;-53
2021/06/16 11:10:06;;;;;;;7.95;4.10;;;35.60;42.50;;;;;;5060698;28;20403;-50
2021/06/16 11:12:40;;;;;;;7.93;3.70;;;35.40;43.00;;;;;;5069084;28;20447;-50
2021/06/16 11:15:24;;;;;;;8.55;6.72;;;35.30;42.40;;;;;;5072432;28;20877;-53
2021/06/16 11:17:53;;;;;;;11.03;8.17;;;35.40;42.60;;;;;;5071794;28;20418;-51
2021/06/16 11:20:19;;;;;;;9.32;6.55;;;35.30;42.70;;;;;;5071384;28;20436;-50
2021/06/16 11:22:44;;;;;;;10.40;7.40;;;35.10;42.40;;;;;;5072134;28;20387;-51
2021/06/16 11:25:19;;;;;;;8.93;7.10;;;35.20;42.10;;;;;;5071121;28;20864;-52
2021/06/16 11:27:51;;;;;;;7.35;6.30;;;35.10;43.00;;;;;;5072451;28;20899;-53
2021/06/16 11:30:40;;;;;;;7.80;6.57;;;35.20;43.00;;;;;;5071484;28;20441;-50
2021/06/16 11:33:15;;;;;;;9.00;6.40;;;35.20;42.80;;;;;;5072356;28;20383;-54
2021/06/16 11:35:43;;;;;;;8.73;7.93;;;35.10;43.20;;;;;;5072068;28;20384;-51
2021/06/16 11:38:25;;;;;;;8.90;4.20;;;34.50;43.30;;;;;;5071524;28;20391;-54
2021/06/16 11:40:50;;;;;;;7.20;4.28;;;34.60;44.90;;;;;;5072124;28;20869;-51
2021/06/16 11:43:32;;;;;;;7.20;5.07;;;34.80;44.00;;;;;;5071643;28;20392;-53
2021/06/16 11:46:26;;;;;;;9.13;4.53;;;34.80;44.10;;;;;;5071893;28;20395;-51
2021/06/16 11:49:00;;;;;;;8.73;4.47;;;34.80;43.60;;;;;;5072087;28;20402;-51
2021/06/16 11:51:39;;;;;;;10.10;4.47;;;34.80;43.90;;;;;;5071136;28;20510;-51
2021/06/16 11:54:23;;;;;;;6.70;4.68;;;34.50;43.60;;;;;;5071828;28;20433;-51
2021/06/16 11:57:02;;;;;;;8.15;4.50;;;34.90;41.50;;;;;;5071790;28;20388;-52
2021/06/16 11:59:40;;;;;;;9.55;4.35;;;35.20;42.60;;;;;;5071121;28;20446;-52
2021/06/16 12:02:13;;;;;;;8.25;4.45;;;35.00;42.20;;;;;;5031904;28;20421;-51
2021/06/16 12:04:44;;;;;;;6.93;4.00;;;35.20;44.20;;;;;;5042797;28;20491;-51
2021/06/16 12:07:10;;;;;;;7.87;4.50;;;35.50;43.40;;;;;;5048587;28;21450;-52
2021/06/16 12:09:46;;;;;;;8.33;5.53;;;35.20;43.40;;;;;;5060752;28;20385;-51
2021/06/16 12:12:12;;;;;;;7.35;4.28;;;34.80;42.90;;;;;;5057139;28;20417;-51
2021/06/16 12:14:38;;;;;;;6.70;3.85;;;34.50;43.90;;;;;;5059074;28;20445;-51
2021/06/16 12:17:04;;;;;;;7.78;4.20;;;34.40;44.60;;;;;;5057195;28;20782;-51
2021/06/16 12:19:35;;;;;;;8.80;3.97;;;34.40;42.70;;;;;;5048560;28;20432;-52
2021/06/16 12:22:04;;;;;;;6.72;3.78;;;34.50;41.40;;;;;;5051604;28;20397;-49
2021/06/16 12:24:41;;;;;;;7.37;3.60;;;34.50;44.90;;;;;;5050360;28;20381;-53
2021/06/16 12:27:15;;;;;;;7.80;3.60;;;34.50;41.80;;;;;;5049445;28;20416;-53
2021/06/16 12:29:50;;;;;;;7.28;3.97;;;34.50;42.40;;;;;;5050845;28;20405;-55
2021/06/16 12:32:40;;;;;;;7.22;4.28;;;34.70;41.80;;;;;;5066892;28;20999;-52
2021/06/16 12:35:19;;;;;;;6.40;3.60;;;34.80;42.40;;;;;;5059405;28;20433;-49
2021/06/16 12:37:47;;;;;;;7.50;3.88;;;34.80;42.40;;;;;;5048844;28;20441;-50
2021/06/16 12:40:12;;;;;;;8.27;4.20;;;34.50;41.70;;;;;;5047900;28;20491;-50
2021/06/16 12:42:46;;;;;;;7.72;4.07;;;34.60;42.10;;;;;;5054119;28;20544;-51
2021/06/16 12:45:28;;;;;;;8.23;4.10;;;34.60;40.90;;;;;;5043241;28;20413;-52
2021/06/16 12:47:58;;;;;;;6.70;3.83;;;35.00;40.50;;;;;;5061532;28;20458;-51
2021/06/16 12:50:36;;;;;;;6.93;3.50;;;34.90;40.30;;;;;;5053993;28;20771;-52